Time;durP1;ratioP1;P1;durP2;ratioP2;P2;SDS_P1;SDS_P2;PMS_P1;PMS_P2;Temp;Humidity;BMP_temperature;BMP_pressure;BME280_temperature;BME280_humidity;BME280_pressure;Samples;Min_cycle;Max_cycle;Signal;HPM_P1;HPM_P2
2022/01/18 00:00:29;;;;;;;1.65;0.60;;;8.90;68.20;;;;;;5084912;28;20050;-72
2022/01/18 00:02:57;;;;;;;2.00;0.50;;;8.90;68.00;;;;;;5090046;28;20024;-72
2022/01/18 00:05:23;;;;;;;1.95;0.68;;;8.70;68.60;;;;;;5090921;28;20027;-72
2022/01/18 00:07:48;;;;;;;2.75;0.90;;;8.50;69.10;;;;;;5092170;28;20020;-72
2022/01/18 00:10:14;;;;;;;1.50;0.63;;;8.60;69.10;;;;;;5090086;28;20051;-72
2022/01/18 00:18:10;;;;;;;2.10;0.55;;;8.50;69.70;;;;;;5091309;28;20032;-72
2022/01/18 00:23:11;;;;;;;0.85;0.30;;;8.30;70.10;;;;;;5090686;28;20028;-73
2022/01/18 00:25:40;;;;;;;0.77;0.30;;;8.10;70.70;;;;;;5089894;28;20082;-72
2022/01/18 00:28:07;;;;;;;0.98;0.50;;;8.30;70.30;;;;;;5090687;28;20101;-73
2022/01/18 00:31:07;;;;;;;0.88;0.40;;;8.20;70.60;;;;;;5090668;28;20055;-72
2022/01/18 00:36:22;;;;;;;0.30;0.13;;;8.00;71.10;;;;;;5090404;28;20090;-72
2022/01/18 00:38:48;;;;;;;0.75;0.30;;;8.10;70.90;;;;;;5091271;28;20047;-72
2022/01/18 00:41:16;;;;;;;0.88;0.40;;;8.10;71.00;;;;;;5090285;28;20102;-72
2022/01/18 00:43:42;;;;;;;0.43;0.20;;;8.20;70.80;;;;;;5090724;28;20042;-73
2022/01/18 00:46:11;;;;;;;0.90;0.22;;;8.10;71.00;;;;;;5090695;28;20031;-72
2022/01/18 00:48:37;;;;;;;0.90;0.20;;;8.10;71.10;;;;;;5090697;28;20032;-72
2022/01/18 00:51:05;;;;;;;1.83;0.50;;;8.10;71.20;;;;;;5090072;28;20131;-72
2022/01/18 00:53:33;;;;;;;0.77;0.38;;;8.20;71.10;;;;;;5090320;28;20123;-72
2022/01/18 00:58:38;;;;;;;0.15;0.10;;;8.20;71.00;;;;;;5089809;28;20443;-72
2022/01/18 01:01:05;;;;;;;0.88;0.20;;;8.00;71.40;;;;;;5089468;28;20050;-72
2022/01/18 01:03:30;;;;;;;0.73;0.30;;;7.80;72.20;;;;;;5089723;28;20089;-72
2022/01/18 01:05:56;;;;;;;1.58;0.47;;;8.30;70.60;;;;;;5089292;28;20032;-72
2022/01/18 01:08:22;;;;;;;1.20;0.40;;;8.50;70.10;;;;;;5089749;28;20032;-73
2022/01/18 01:10:52;;;;;;;0.45;0.30;;;8.80;69.50;;;;;;5089611;28;20032;-73
2022/01/18 01:13:18;;;;;;;0.43;0.30;;;8.90;69.20;;;;;;5088405;28;20479;-73
2022/01/18 01:16:10;;;;;;;0.98;0.40;;;8.90;69.80;;;;;;5090040;28;20077;-72
2022/01/18 01:34:53;;;;;;;1.80;0.30;;;9.00;69.10;;;;;;5080471;28;20089;-72
2022/01/18 01:45:11;;;;;;;0.73;0.30;;;8.90;69.90;;;;;;5089684;28;20051;-72
2022/01/18 01:47:37;;;;;;;2.65;0.50;;;8.60;70.50;;;;;;5089273;28;20390;-72
2022/01/18 01:50:16;;;;;;;0.63;0.30;;;8.50;70.50;;;;;;5091249;28;20020;-72
2022/01/18 01:52:42;;;;;;;1.27;0.50;;;8.70;70.00;;;;;;5074788;28;20423;-72
2022/01/18 01:55:08;;;;;;;1.70;0.30;;;9.20;69.00;;;;;;5093277;28;20028;-72
2022/01/18 01:57:34;;;;;;;0.30;0.17;;;9.10;69.20;;;;;;5092827;28;20043;-73
2022/01/18 02:00:07;;;;;;;1.33;0.30;;;8.90;69.50;;;;;;5092996;28;20505;-72
2022/01/18 02:02:33;;;;;;;0.57;0.40;;;9.00;69.90;;;;;;5093261;28;20085;-72
2022/01/18 02:04:59;;;;;;;1.23;0.30;;;8.80;69.60;;;;;;5093052;28;20103;-72
2022/01/18 02:07:24;;;;;;;1.05;0.30;;;8.80;70.00;;;;;;5093201;28;20043;-72
2022/01/18 02:09:50;;;;;;;1.13;0.28;;;8.70;69.90;;;;;;5091969;28;20032;-72
2022/01/18 02:12:19;;;;;;;0.95;0.22;;;8.60;70.10;;;;;;5092616;28;20016;-72
2022/01/18 02:14:50;;;;;;;0.70;0.30;;;8.80;69.30;;;;;;5092317;28;20509;-72
2022/01/18 02:22:47;;;;;;;1.17;0.35;;;8.00;71.40;;;;;;5091671;28;20297;-72
2022/01/18 02:25:13;;;;;;;1.02;0.50;;;7.70;72.10;;;;;;5073685;28;20482;-72
2022/01/18 02:27:39;;;;;;;0.30;0.20;;;7.70;71.90;;;;;;5092827;28;20131;-72
2022/01/18 02:30:05;;;;;;;0.57;0.25;;;7.70;71.80;;;;;;5092608;28;20067;-72
2022/01/18 02:32:31;;;;;;;0.70;0.30;;;7.60;71.70;;;;;;5091870;28;20040;-72
2022/01/18 02:34:56;;;;;;;1.33;0.40;;;7.80;71.70;;;;;;5080588;28;20025;-72
2022/01/18 02:37:22;;;;;;;1.25;0.40;;;7.90;71.40;;;;;;5092551;28;20474;-72
2022/01/18 02:39:47;;;;;;;0.85;0.30;;;7.80;71.60;;;;;;5091410;28;20048;-72
2022/01/18 02:42:16;;;;;;;1.10;0.55;;;7.90;71.50;;;;;;5091323;28;20024;-72
2022/01/18 02:44:43;;;;;;;0.60;0.30;;;7.60;72.10;;;;;;5092838;28;20024;-73
2022/01/18 02:47:09;;;;;;;0.75;0.30;;;8.20;70.50;;;;;;5092057;28;20047;-72
2022/01/18 02:49:35;;;;;;;2.40;0.60;;;8.30;70.50;;;;;;5091760;28;20392;-72
2022/01/18 02:52:01;;;;;;;1.40;0.50;;;8.20;70.50;;;;;;5091633;28;20035;-72
2022/01/18 02:54:27;;;;;;;0.47;0.30;;;8.10;70.90;;;;;;5073947;28;20064;-72
2022/01/18 02:56:59;;;;;;;0.95;0.40;;;8.10;70.70;;;;;;5091748;28;20067;-72
2022/01/18 03:05:10;;;;;;;0.95;0.40;;;7.80;71.50;;;;;;5089974;28;20046;-72
2022/01/18 03:07:36;;;;;;;1.65;0.55;;;7.80;71.40;;;;;;5092063;28;20032;-71
2022/01/18 03:10:03;;;;;;;0.73;0.32;;;7.90;71.40;;;;;;5091690;28;20054;-71
2022/01/18 03:12:30;;;;;;;0.60;0.20;;;7.60;71.90;;;;;;5090910;28;20036;-71
2022/01/18 03:14:55;;;;;;;1.13;0.40;;;7.60;72.10;;;;;;5090929;28;20047;-71
2022/01/18 03:17:22;;;;;;;2.17;0.32;;;7.80;71.50;;;;;;5092017;28;20031;-71
2022/01/18 03:19:48;;;;;;;0.52;0.25;;;7.90;71.20;;;;;;5091767;28;20046;-71
2022/01/18 03:22:14;;;;;;;0.20;0.10;;;7.90;71.20;;;;;;5089544;28;20027;-72
2022/01/18 03:29:52;;;;;;;0.57;0.20;;;7.30;72.50;;;;;;5091586;28;20070;-71
2022/01/18 03:32:18;;;;;;;1.15;0.32;;;7.20;72.70;;;;;;5090419;28;20036;-71
2022/01/18 03:34:44;;;;;;;0.95;0.38;;;7.20;72.60;;;;;;5091324;28;20359;-71
2022/01/18 03:37:09;;;;;;;0.68;0.38;;;7.20;73.00;;;;;;5090997;28;20050;-71
2022/01/18 03:39:35;;;;;;;0.73;0.32;;;7.00;73.10;;;;;;5091457;28;20032;-71
2022/01/18 03:42:46;;;;;;;0.68;0.13;;;7.10;73.00;;;;;;5090662;28;20059;-71
2022/01/18 03:44:49;;;;;;;0.98;0.30;;;6.70;73.70;;;;;;5079625;28;20094;-71
2022/01/18 03:47:16;;;;;;;0.60;0.30;;;6.60;74.20;;;;;;5091023;28;20028;-71
2022/01/18 03:49:41;;;;;;;0.75;0.22;;;6.40;74.80;;;;;;5091263;28;20032;-72
2022/01/18 03:52:07;;;;;;;0.38;0.20;;;6.50;74.60;;;;;;5090177;28;20085;-71
2022/01/18 03:54:41;;;;;;;0.47;0.20;;;7.40;72.30;;;;;;5090093;28;20020;-71
2022/01/18 03:57:07;;;;;;;0.60;0.20;;;7.20;72.90;;;;;;5091089;28;20024;-71
2022/01/18 03:59:33;;;;;;;0.17;0.08;;;7.10;72.90;;;;;;5090900;28;20127;-71
2022/01/18 04:01:59;;;;;;;0.75;0.22;;;7.10;72.90;;;;;;5086446;28;20637;-72
2022/01/18 04:04:24;;;;;;;0.75;0.28;;;6.70;74.30;;;;;;5081741;28;20028;-72
2022/01/18 04:06:50;;;;;;;0.55;0.20;;;6.80;73.90;;;;;;5082884;28;20637;-72
2022/01/18 04:09:16;;;;;;;0.75;0.20;;;6.70;73.90;;;;;;5083564;28;20062;-73
2022/01/18 04:11:42;;;;;;;0.88;0.20;;;7.10;73.00;;;;;;5083196;28;20116;-72
2022/01/18 04:14:08;;;;;;;0.35;0.10;;;7.70;71.50;;;;;;5083063;28;20127;-72
2022/01/18 04:16:42;;;;;;;0.80;0.30;;;7.50;72.00;;;;;;5082572;28;20032;-73
2022/01/18 04:25:46;;;;;;;0.52;0.13;;;7.30;72.40;;;;;;5083396;28;20043;-72
2022/01/18 04:27:34;;;;;;;0.75;0.32;;;7.00;73.30;;;;;;5086351;28;20070;-73
2022/01/18 04:29:59;;;;;;;1.50;0.20;;;7.00;73.10;;;;;;5086196;28;20114;-72
2022/01/18 04:32:25;;;;;;;0.98;0.25;;;6.80;73.50;;;;;;5065365;28;20119;-72
2022/01/18 04:34:51;;;;;;;1.08;0.25;;;6.50;74.50;;;;;;5075443;28;20016;-72
2022/01/18 04:37:16;;;;;;;0.30;0.15;;;7.20;72.80;;;;;;5085572;28;20083;-73
2022/01/18 04:39:45;;;;;;;0.45;0.32;;;7.20;72.60;;;;;;5086268;28;20031;-73
2022/01/18 04:42:32;;;;;;;0.70;0.28;;;7.20;72.80;;;;;;5084115;28;20842;-72
2022/01/18 04:50:26;;;;;;;0.70;0.23;;;7.40;72.40;;;;;;5083012;28;20100;-72
2022/01/18 04:52:52;;;;;;;2.05;0.45;;;7.30;72.40;;;;;;5083119;28;20122;-72
2022/01/18 04:55:18;;;;;;;0.57;0.30;;;7.30;72.70;;;;;;5085589;28;20059;-72
2022/01/18 04:57:54;;;;;;;0.63;0.30;;;7.30;72.30;;;;;;5085077;28;20031;-73
2022/01/18 05:00:23;;;;;;;0.52;0.20;;;7.60;72.10;;;;;;5082255;28;20040;-72
2022/01/18 05:02:49;;;;;;;0.40;0.20;;;7.50;72.10;;;;;;5082808;28;20366;-72
2022/01/18 05:05:31;;;;;;;0.50;0.20;;;7.50;72.00;;;;;;5080744;28;20032;-72
2022/01/18 05:08:04;;;;;;;1.55;0.32;;;7.80;71.30;;;;;;5082891;28;20032;-72
2022/01/18 05:10:31;;;;;;;0.13;0.13;;;7.40;72.60;;;;;;5081856;28;20110;-72
2022/01/18 05:12:59;;;;;;;0.80;0.40;;;7.40;72.30;;;;;;5082767;28;20106;-73
2022/01/18 05:23:04;;;;;;;0.65;0.22;;;6.20;75.00;;;;;;5080823;28;20044;-72
2022/01/18 05:25:31;;;;;;;0.95;0.40;;;6.00;75.60;;;;;;5083609;28;20040;-73
2022/01/18 05:27:57;;;;;;;0.65;0.20;;;6.50;74.40;;;;;;5085790;28;20060;-72
2022/01/18 05:30:24;;;;;;;0.77;0.22;;;6.30;74.90;;;;;;5086680;28;20020;-72
2022/01/18 05:32:49;;;;;;;0.38;0.20;;;6.40;74.80;;;;;;5083005;28;20537;-72
2022/01/18 05:35:15;;;;;;;1.77;0.20;;;6.60;74.10;;;;;;5085114;28;20107;-72
2022/01/18 05:37:41;;;;;;;1.27;0.32;;;6.50;74.30;;;;;;5084580;28;20024;-73
2022/01/18 05:40:07;;;;;;;0.52;0.10;;;6.60;74.20;;;;;;5085580;28;20031;-72
2022/01/18 05:42:33;;;;;;;1.02;0.22;;;7.20;72.70;;;;;;5085724;28;20052;-72
2022/01/18 05:44:59;;;;;;;0.50;0.20;;;7.20;72.90;;;;;;5085785;28;20035;-72
2022/01/18 05:47:24;;;;;;;0.30;0.10;;;7.20;72.80;;;;;;5085541;28;20028;-73
2022/01/18 05:49:50;;;;;;;0.80;0.32;;;7.30;72.50;;;;;;5086269;28;20036;-72
2022/01/18 05:52:16;;;;;;;1.52;0.25;;;7.40;72.40;;;;;;5084624;28;20028;-72
2022/01/18 05:54:42;;;;;;;0.30;0.20;;;7.20;72.80;;;;;;5085657;28;20028;-72
2022/01/18 05:57:07;;;;;;;1.23;0.35;;;7.30;72.70;;;;;;5085357;28;20032;-73
2022/01/18 05:59:36;;;;;;;1.17;0.35;;;7.30;72.60;;;;;;5086162;28;20061;-72
2022/01/18 06:02:03;;;;;;;0.45;0.10;;;7.10;72.80;;;;;;5081203;28;20035;-72
2022/01/18 06:07:13;;;;;;;0.22;0.20;;;7.30;72.40;;;;;;5085254;28;20097;-73
2022/01/18 06:09:39;;;;;;;0.52;0.13;;;7.20;72.70;;;;;;5085731;28;20036;-72
2022/01/18 06:12:05;;;;;;;2.22;0.40;;;6.60;74.00;;;;;;5083636;28;20108;-73
2022/01/18 06:14:31;;;;;;;0.57;0.28;;;6.70;74.20;;;;;;5085267;28;20120;-72
2022/01/18 06:16:56;;;;;;;1.67;0.32;;;6.20;75.30;;;;;;5084380;28;20031;-72
2022/01/18 06:19:22;;;;;;;1.30;0.30;;;6.20;75.10;;;;;;5085933;28;20085;-72
2022/01/18 06:21:48;;;;;;;0.98;0.30;;;6.20;75.10;;;;;;5084609;28;20442;-72
2022/01/18 06:24:13;;;;;;;0.73;0.30;;;6.20;74.80;;;;;;5084847;28;21025;-73
2022/01/18 06:26:39;;;;;;;0.90;0.25;;;6.00;75.00;;;;;;5085352;28;20555;-73
2022/01/18 06:29:05;;;;;;;1.20;0.32;;;6.10;75.00;;;;;;5091032;28;20040;-72
2022/01/18 06:31:31;;;;;;;0.90;0.20;;;6.20;74.90;;;;;;5085354;28;20040;-73
2022/01/18 06:33:56;;;;;;;0.70;0.30;;;6.20;74.80;;;;;;5081553;28;20036;-72
2022/01/18 06:36:22;;;;;;;3.10;0.77;;;6.10;75.10;;;;;;5084110;28;20085;-72
2022/01/18 06:38:48;;;;;;;0.90;0.30;;;6.10;75.20;;;;;;5085025;28;20040;-72
2022/01/18 06:41:13;;;;;;;0.85;0.32;;;6.10;75.00;;;;;;5085035;28;20067;-72
2022/01/18 06:43:39;;;;;;;1.42;0.40;;;6.00;75.30;;;;;;5084670;28;20016;-72
2022/01/18 06:46:05;;;;;;;0.73;0.43;;;5.90;75.50;;;;;;5085695;28;20687;-72
2022/01/18 06:48:31;;;;;;;1.30;0.30;;;6.00;75.40;;;;;;5085124;28;20036;-72
2022/01/18 06:50:57;;;;;;;1.83;0.30;;;5.70;75.80;;;;;;5085330;28;20058;-72
2022/01/18 06:53:23;;;;;;;0.93;0.47;;;5.90;75.70;;;;;;5083991;28;20028;-72
2022/01/18 06:55:52;;;;;;;0.30;0.20;;;5.70;76.40;;;;;;5083843;28;20493;-71
2022/01/18 06:58:18;;;;;;;0.40;0.17;;;5.70;76.30;;;;;;5084299;28;20024;-71
2022/01/18 07:00:44;;;;;;;1.27;0.35;;;5.70;76.30;;;;;;5066490;28;20032;-72
2022/01/18 07:03:10;;;;;;;0.80;0.22;;;5.40;77.20;;;;;;5085512;28;20047;-71
2022/01/18 07:05:37;;;;;;;0.63;0.20;;;5.40;76.60;;;;;;5084295;28;20016;-72
2022/01/18 07:08:03;;;;;;;0.55;0.20;;;5.50;76.70;;;;;;5091744;28;20031;-71
2022/01/18 07:10:31;;;;;;;0.95;0.40;;;5.60;76.30;;;;;;5084219;28;20036;-71
2022/01/18 07:12:58;;;;;;;0.88;0.30;;;5.70;76.10;;;;;;5084546;28;20028;-73
2022/01/18 07:15:23;;;;;;;1.20;0.45;;;5.70;75.90;;;;;;5084058;28;20039;-72
2022/01/18 07:17:49;;;;;;;0.57;0.28;;;5.80;75.80;;;;;;5085070;28;20031;-72
2022/01/18 07:20:15;;;;;;;0.65;0.22;;;5.80;76.00;;;;;;5084821;28;20373;-72
2022/01/18 07:22:42;;;;;;;0.73;0.20;;;5.80;75.60;;;;;;5084188;28;20504;-72
2022/01/18 07:25:13;;;;;;;0.70;0.20;;;6.20;75.20;;;;;;5083831;28;20433;-72
2022/01/18 07:27:38;;;;;;;0.85;0.35;;;6.10;75.70;;;;;;5084321;28;20044;-72
2022/01/18 07:30:05;;;;;;;0.75;0.20;;;6.00;75.40;;;;;;5083945;28;20036;-72
2022/01/18 07:32:30;;;;;;;1.60;0.40;;;6.30;74.90;;;;;;5084096;28;20032;-72
2022/01/18 07:34:57;;;;;;;1.40;0.38;;;6.40;74.70;;;;;;5083922;28;20039;-73
2022/01/18 07:37:23;;;;;;;0.45;0.32;;;6.30;74.80;;;;;;5084231;28;20046;-72
2022/01/18 07:39:51;;;;;;;2.67;0.43;;;6.20;75.10;;;;;;5083271;28;20032;-72
2022/01/18 07:42:18;;;;;;;1.40;0.30;;;6.10;75.20;;;;;;5083374;28;20031;-72
2022/01/18 07:44:43;;;;;;;0.85;0.40;;;6.30;74.80;;;;;;5084141;28;20028;-72
2022/01/18 07:47:09;;;;;;;2.50;0.20;;;6.20;74.90;;;;;;5083496;28;20028;-72
2022/01/18 07:49:35;;;;;;;1.25;0.50;;;6.10;75.10;;;;;;5084350;28;20023;-72
2022/01/18 07:52:01;;;;;;;3.50;1.00;;;6.10;75.30;;;;;;5083486;28;20035;-72
2022/01/18 07:54:26;;;;;;;2.15;0.85;;;5.80;76.20;;;;;;5083944;28;20438;-72
2022/01/18 07:56:52;;;;;;;1.95;0.70;;;5.90;75.90;;;;;;5083589;28;20394;-72
2022/01/18 07:59:18;;;;;;;1.40;0.52;;;5.90;76.10;;;;;;5083883;28;20165;-72
2022/01/18 08:01:43;;;;;;;1.80;0.77;;;5.80;76.70;;;;;;5083313;28;20458;-72
2022/01/18 08:04:10;;;;;;;2.35;0.80;;;5.60;77.20;;;;;;5077638;28;20024;-72
2022/01/18 08:06:36;;;;;;;2.38;0.90;;;5.50;77.30;;;;;;5076532;28;20024;-72
2022/01/18 08:09:03;;;;;;;1.60;0.77;;;5.40;77.10;;;;;;5077156;28;20016;-72
2022/01/18 08:11:28;;;;;;;2.80;0.70;;;5.50;77.10;;;;;;5082728;28;20036;-72
2022/01/18 08:13:54;;;;;;;0.93;0.50;;;5.30;77.80;;;;;;5082619;28;20028;-72
2022/01/18 08:16:46;;;;;;;3.15;0.80;;;5.40;77.60;;;;;;5065627;28;20036;-71
2022/01/18 08:19:09;;;;;;;3.38;0.93;;;5.50;77.50;;;;;;5083358;28;20088;-72
2022/01/18 08:21:36;;;;;;;2.35;0.93;;;5.40;77.70;;;;;;5083638;28;20056;-72
2022/01/18 08:24:02;;;;;;;1.42;0.60;;;5.40;77.70;;;;;;5082479;28;20081;-72
2022/01/18 08:26:28;;;;;;;2.45;0.88;;;5.50;77.50;;;;;;5076957;28;20122;-72
2022/01/18 08:28:54;;;;;;;1.70;0.82;;;5.60;77.50;;;;;;5081918;28;20135;-72
2022/01/18 08:31:19;;;;;;;2.22;0.60;;;5.50;77.60;;;;;;5076565;28;20048;-72
2022/01/18 08:33:45;;;;;;;1.83;0.82;;;5.60;77.60;;;;;;5078659;28;20055;-72
2022/01/18 08:36:11;;;;;;;5.55;0.90;;;5.50;78.50;;;;;;5081520;28;20123;-72
2022/01/18 08:38:39;;;;;;;1.67;0.73;;;5.40;78.30;;;;;;5083076;28;20644;-72
2022/01/18 08:41:06;;;;;;;2.92;1.02;;;5.30;78.50;;;;;;5083205;28;20043;-72
2022/01/18 08:43:33;;;;;;;3.28;0.80;;;5.20;79.00;;;;;;5081823;28;20043;-72
2022/01/18 08:46:05;;;;;;;3.65;1.10;;;5.20;79.10;;;;;;5082192;28;20028;-72
2022/01/18 08:48:32;;;;;;;1.85;1.00;;;5.10;80.00;;;;;;5082681;28;20032;-72
2022/01/18 08:50:59;;;;;;;1.98;0.63;;;5.00;80.20;;;;;;5083065;28;20031;-72
2022/01/18 08:53:25;;;;;;;0.93;0.50;;;5.10;79.60;;;;;;5082263;28;20028;-72
2022/01/18 08:55:51;;;;;;;1.17;0.60;;;5.40;78.90;;;;;;5079239;28;20131;-72
2022/01/18 08:58:16;;;;;;;6.55;1.42;;;5.40;78.90;;;;;;5082295;28;20032;-72
2022/01/18 09:00:42;;;;;;;2.60;0.90;;;5.50;78.60;;;;;;5081617;28;20139;-72
2022/01/18 09:03:09;;;;;;;3.58;1.05;;;5.60;78.50;;;;;;5082244;28;20058;-72
2022/01/18 09:05:37;;;;;;;1.60;0.70;;;5.60;78.80;;;;;;5082731;28;20525;-72
2022/01/18 09:08:06;;;;;;;1.85;0.60;;;5.60;78.10;;;;;;5082581;28;20054;-72
2022/01/18 09:10:32;;;;;;;0.63;0.38;;;5.70;77.60;;;;;;5082335;28;20028;-72
2022/01/18 09:12:58;;;;;;;2.70;0.80;;;5.70;77.70;;;;;;5082305;28;20098;-72
2022/01/18 09:15:25;;;;;;;2.83;1.00;;;5.70;77.90;;;;;;5081695;28;20020;-72
2022/01/18 09:17:51;;;;;;;3.15;1.02;;;5.70;78.10;;;;;;5081988;28;20012;-72
2022/01/18 09:20:17;;;;;;;2.10;0.82;;;5.50;79.30;;;;;;5080819;28;20097;-72
2022/01/18 09:22:45;;;;;;;2.58;0.80;;;5.40;79.10;;;;;;5080763;28;20036;-72
2022/01/18 09:25:20;;;;;;;2.97;0.93;;;5.30;79.70;;;;;;5081029;28;20119;-72
2022/01/18 09:27:45;;;;;;;1.17;0.60;;;5.30;79.80;;;;;;5082043;28;20048;-72
2022/01/18 09:30:13;;;;;;;0.95;0.60;;;5.40;79.10;;;;;;5081530;28;20070;-72
2022/01/18 09:32:39;;;;;;;1.05;0.52;;;5.50;78.70;;;;;;5083461;28;20028;-72
2022/01/18 09:35:06;;;;;;;1.50;0.90;;;5.50;78.50;;;;;;5082492;28;20020;-72
2022/01/18 09:37:33;;;;;;;1.85;0.50;;;5.60;78.40;;;;;;5082816;28;20040;-72
2022/01/18 09:39:59;;;;;;;1.10;0.70;;;5.70;78.20;;;;;;5081782;28;20032;-72
2022/01/18 09:42:33;;;;;;;0.82;0.52;;;5.70;78.10;;;;;;5082823;28;20032;-72
2022/01/18 09:45:07;;;;;;;1.45;0.65;;;5.70;77.90;;;;;;5082338;28;20391;-72
2022/01/18 09:47:34;;;;;;;1.50;0.40;;;5.70;77.60;;;;;;5081913;28;20092;-72
2022/01/18 09:50:00;;;;;;;3.13;0.85;;;5.70;77.70;;;;;;5081313;28;20119;-72
2022/01/18 09:52:26;;;;;;;2.47;0.98;;;5.70;77.80;;;;;;5082398;28;20428;-72
2022/01/18 09:54:52;;;;;;;3.15;1.23;;;5.70;78.90;;;;;;5082520;28;20379;-72
2022/01/18 09:57:18;;;;;;;1.88;0.70;;;5.70;78.50;;;;;;5082482;28;20129;-72
2022/01/18 09:59:44;;;;;;;1.67;0.60;;;5.90;77.50;;;;;;5082519;28;20040;-72
2022/01/18 10:02:10;;;;;;;2.00;0.73;;;6.00;76.80;;;;;;5082418;28;20024;-72
2022/01/18 10:04:41;;;;;;;2.92;0.90;;;6.00;77.50;;;;;;5081945;28;20035;-72
2022/01/18 10:07:07;;;;;;;3.95;0.90;;;5.80;78.90;;;;;;5080797;28;20036;-72
2022/01/18 10:09:34;;;;;;;2.25;1.00;;;5.80;78.20;;;;;;5082990;28;20031;-72
2022/01/18 10:12:11;;;;;;;2.17;1.00;;;5.80;78.10;;;;;;5084184;28;20112;-71
2022/01/18 10:14:40;;;;;;;5.35;1.45;;;5.80;79.00;;;;;;5086669;28;20111;-72
2022/01/18 10:17:07;;;;;;;3.63;1.00;;;5.90;78.00;;;;;;5086245;28;20103;-72
2022/01/18 10:19:43;;;;;;;2.10;1.10;;;5.80;79.10;;;;;;5086208;28;20040;-72
2022/01/18 10:22:16;;;;;;;2.28;0.88;;;5.70;79.20;;;;;;5085769;28;20067;-72
2022/01/18 10:24:42;;;;;;;1.42;0.70;;;5.70;78.70;;;;;;5086388;28;20032;-72
2022/01/18 10:27:09;;;;;;;2.13;0.60;;;6.00;77.50;;;;;;5085930;28;20024;-72
2022/01/18 10:29:42;;;;;;;3.15;0.70;;;6.00;77.30;;;;;;5086063;28;20046;-72
2022/01/18 10:32:29;;;;;;;2.40;0.40;;;6.10;77.10;;;;;;5086276;28;20120;-72
2022/01/18 10:37:28;;;;;;;1.85;0.70;;;6.00;78.20;;;;;;5085946;28;20031;-72
2022/01/18 10:39:56;;;;;;;2.92;1.00;;;6.00;78.10;;;;;;5086190;28;20082;-72
2022/01/18 10:42:30;;;;;;;21.15;1.95;;;5.90;78.60;;;;;;5084876;28;20226;-72
2022/01/18 10:45:08;;;;;;;2.00;0.90;;;6.20;82.70;;;;;;5084854;28;20020;-72
2022/01/18 10:47:35;;;;;;;1.65;0.60;;;6.40;77.70;;;;;;5085653;28;20595;-72
2022/01/18 10:50:14;;;;;;;2.65;0.88;;;6.70;77.70;;;;;;5084684;28;20049;-72
2022/01/18 10:52:40;;;;;;;2.45;1.20;;;6.80;77.10;;;;;;5082862;28;20553;-72
2022/01/18 10:55:06;;;;;;;5.97;1.38;;;7.00;77.10;;;;;;5085062;28;20055;-75
2022/01/18 10:57:38;;;;;;;5.22;2.17;;;7.10;76.50;;;;;;5084520;28;20543;-72
2022/01/18 11:00:20;;;;;;;5.40;2.55;;;7.20;77.10;;;;;;5085211;28;20032;-72
2022/01/18 11:02:52;;;;;;;15.45;7.25;;;7.30;77.00;;;;;;5084533;28;20050;-73
2022/01/18 11:05:30;;;;;;;30.42;16.92;;;7.30;77.00;;;;;;5084606;28;20024;-72
2022/01/18 11:08:02;;;;;;;50.95;24.95;;;7.40;76.60;;;;;;5085301;28;20042;-72
2022/01/18 11:10:33;;;;;;;33.42;18.85;;;7.40;76.20;;;;;;5084652;28;20028;-72
2022/01/18 11:13:04;;;;;;;42.35;25.02;;;7.60;76.20;;;;;;5076213;28;20655;-72
2022/01/18 11:15:36;;;;;;;8.02;4.60;;;7.70;76.40;;;;;;5083916;28;20027;-72
2022/01/18 11:18:07;;;;;;;39.65;22.73;;;7.90;75.30;;;;;;5085294;28;20024;-72
2022/01/18 11:20:39;;;;;;;11.55;5.85;;;7.90;75.70;;;;;;5084554;28;20036;-72
2022/01/18 11:23:06;;;;;;;10.35;5.10;;;8.00;75.80;;;;;;5080761;28;20029;-72
2022/01/18 11:25:33;;;;;;;6.97;2.33;;;7.90;75.90;;;;;;5080258;28;20029;-72
2022/01/18 11:27:59;;;;;;;8.05;3.63;;;8.00;75.60;;;;;;5075649;28;20422;-72
2022/01/18 11:30:31;;;;;;;11.82;5.63;;;8.00;75.70;;;;;;5083668;28;20028;-72
2022/01/18 11:32:59;;;;;;;5.15;2.08;;;8.20;76.00;;;;;;5084087;28;20107;-72
2022/01/18 11:35:46;;;;;;;11.32;5.85;;;8.40;75.30;;;;;;5082872;28;20508;-72
2022/01/18 11:38:40;;;;;;;14.98;8.45;;;8.30;75.00;;;;;;5077586;28;20028;-72
2022/01/18 11:41:06;;;;;;;6.50;3.92;;;8.50;75.30;;;;;;5083670;28;20182;-72
2022/01/18 11:43:45;;;;;;;7.97;3.05;;;8.60;75.20;;;;;;5082746;28;20032;-72
2022/01/18 11:46:24;;;;;;;5.45;2.28;;;8.70;75.00;;;;;;5083815;28;20624;-73
2022/01/18 11:49:03;;;;;;;5.28;2.50;;;8.70;74.40;;;;;;5082120;28;20024;-72
2022/01/18 11:51:45;;;;;;;6.03;3.88;;;8.90;74.90;;;;;;5076936;28;20581;-72
2022/01/18 11:54:35;;;;;;;4.38;2.58;;;9.10;75.00;;;;;;5083557;28;20062;-72
2022/01/18 11:57:03;;;;;;;15.57;10.20;;;9.20;74.20;;;;;;5083350;28;20066;-72
2022/01/18 11:59:38;;;;;;;9.68;5.95;;;9.30;74.70;;;;;;5083221;28;20425;-72
2022/01/18 12:02:05;;;;;;;5.65;3.22;;;9.40;75.10;;;;;;5083286;28;20365;-72
2022/01/18 12:04:49;;;;;;;9.10;4.00;;;9.40;74.70;;;;;;5083339;28;20039;-72
2022/01/18 12:07:38;;;;;;;6.93;2.22;;;9.50;74.70;;;;;;5064814;28;20507;-72
2022/01/18 12:10:09;;;;;;;4.20;2.25;;;9.50;73.90;;;;;;5067830;28;20439;-73
2022/01/18 12:12:40;;;;;;;5.47;1.92;;;9.60;74.50;;;;;;5078234;28;20042;-73
2022/01/18 12:15:26;;;;;;;3.05;1.50;;;9.70;74.70;;;;;;5082181;28;20028;-72
2022/01/18 12:17:58;;;;;;;4.78;1.90;;;9.80;74.70;;;;;;5079408;28;20024;-73
2022/01/18 12:20:42;;;;;;;6.40;1.70;;;9.90;73.50;;;;;;5082866;28;20040;-72
2022/01/18 12:23:11;;;;;;;6.25;2.08;;;10.00;73.30;;;;;;5083056;28;20024;-73
2022/01/18 12:25:55;;;;;;;7.47;3.10;;;9.90;74.20;;;;;;5081597;28;20028;-72
2022/01/18 12:28:56;;;;;;;3.90;2.03;;;9.90;73.20;;;;;;5082313;28;20070;-72
2022/01/18 12:34:30;;;;;;;5.15;2.22;;;10.20;73.80;;;;;;5082657;28;20055;-73
2022/01/18 12:37:23;;;;;;;7.57;3.50;;;10.20;72.70;;;;;;5064438;28;20425;-72
2022/01/18 12:45:06;;;;;;;5.05;2.00;;;10.20;72.10;;;;;;5081790;28;20833;-73
2022/01/18 12:47:36;;;;;;;4.93;1.95;;;10.30;72.50;;;;;;5082279;28;20032;-73
2022/01/18 12:50:04;;;;;;;2.90;1.50;;;10.20;72.50;;;;;;5082821;28;20024;-73
2022/01/18 12:52:52;;;;;;;3.65;1.27;;;10.10;71.70;;;;;;5082499;28;20582;-73
2022/01/18 12:55:27;;;;;;;4.40;1.65;;;10.20;71.80;;;;;;5082425;28;20119;-73
2022/01/18 12:58:05;;;;;;;18.77;3.00;;;10.30;72.20;;;;;;5081755;28;20032;-73
2022/01/18 13:00:46;;;;;;;7.82;1.77;;;10.40;72.10;;;;;;5073578;28;20054;-73
2022/01/18 13:03:38;;;;;;;5.55;1.83;;;10.50;72.20;;;;;;5082640;28;20423;-73
2022/01/18 13:06:09;;;;;;;6.40;2.63;;;10.40;71.20;;;;;;5051102;28;20452;-73
2022/01/18 13:08:44;;;;;;;6.60;1.60;;;10.50;71.20;;;;;;5081882;28;20084;-73
2022/01/18 13:11:11;;;;;;;6.20;2.20;;;10.30;70.40;;;;;;5082236;28;20032;-73
2022/01/18 13:13:37;;;;;;;8.40;4.35;;;10.40;70.80;;;;;;5081180;28;20076;-73
2022/01/18 13:27:00;;;;;;;;;;;10.40;71.30;;;;;;5082555;28;20565;-73
2022/01/18 13:29:28;;;;;;;2.67;1.10;;;10.20;71.50;;;;;;5081223;28;19982;-73
2022/01/18 13:32:05;;;;;;;3.20;1.33;;;10.10;71.90;;;;;;5081574;28;20039;-73
2022/01/18 13:34:36;;;;;;;3.08;0.75;;;10.10;72.20;;;;;;5081372;28;20046;-73
2022/01/18 13:37:05;;;;;;;2.17;0.90;;;10.00;72.30;;;;;;5081312;28;20032;-73
2022/01/18 13:39:58;;;;;;;3.50;1.00;;;10.00;72.10;;;;;;5082017;28;20366;-73
2022/01/18 13:42:37;;;;;;;3.50;1.10;;;10.00;72.50;;;;;;5078779;28;20130;-73
2022/01/18 13:45:16;;;;;;;1.83;0.80;;;10.00;71.80;;;;;;5081484;28;20413;-73
2022/01/18 13:47:49;;;;;;;3.17;0.90;;;10.10;72.20;;;;;;5083236;28;20527;-72
2022/01/18 13:50:49;;;;;;;1.63;0.65;;;9.90;71.30;;;;;;5085814;28;20153;-71
2022/01/18 13:53:18;;;;;;;7.80;1.08;;;9.90;72.20;;;;;;5086022;28;20126;-71
2022/01/18 13:55:53;;;;;;;2.08;0.90;;;10.00;72.10;;;;;;5085727;28;20027;-71
2022/01/18 13:58:33;;;;;;;3.80;0.70;;;9.80;71.90;;;;;;5085309;28;20031;-71
2022/01/18 14:01:21;;;;;;;2.00;0.77;;;9.80;73.00;;;;;;5073358;28;20540;-71
2022/01/18 14:04:11;;;;;;;2.53;1.17;;;9.80;72.40;;;;;;5085683;28;20560;-71
2022/01/18 14:06:39;;;;;;;2.70;1.10;;;10.00;72.70;;;;;;5072391;28;20044;-71
2022/01/18 14:09:07;;;;;;;2.75;1.10;;;9.90;72.30;;;;;;5085565;28;20378;-71
2022/01/18 14:11:35;;;;;;;2.58;1.10;;;9.90;71.80;;;;;;5078423;28;20535;-71
2022/01/18 14:14:15;;;;;;;3.67;1.65;;;9.90;71.80;;;;;;5076727;28;20056;-71
2022/01/18 14:16:47;;;;;;;4.57;1.10;;;9.90;72.40;;;;;;5080608;28;20113;-71
2022/01/18 14:19:23;;;;;;;2.60;1.20;;;9.90;71.70;;;;;;5086017;28;20028;-71
2022/01/18 14:21:50;;;;;;;3.83;1.55;;;9.90;72.20;;;;;;5085773;28;20047;-71
2022/01/18 14:24:18;;;;;;;1.70;1.00;;;9.90;72.00;;;;;;5084042;28;20486;-71
2022/01/18 14:26:53;;;;;;;3.58;1.45;;;9.80;72.40;;;;;;5082046;28;20379;-71
2022/01/18 14:29:42;;;;;;;4.10;2.00;;;9.70;72.60;;;;;;5078731;28;20036;-71
2022/01/18 14:32:11;;;;;;;4.70;1.60;;;9.80;72.30;;;;;;5066019;28;20036;-71
2022/01/18 14:34:40;;;;;;;3.60;1.52;;;9.90;71.90;;;;;;5079977;28;20032;-71
2022/01/18 14:37:07;;;;;;;5.45;1.85;;;9.80;72.20;;;;;;5078341;28;20016;-71
2022/01/18 14:39:33;;;;;;;3.92;1.17;;;9.90;72.40;;;;;;5076302;28;20437;-71
2022/01/18 14:42:05;;;;;;;3.33;1.30;;;9.80;71.90;;;;;;5078422;28;20028;-71
2022/01/18 14:47:26;;;;;;;4.22;0.90;;;9.90;72.10;;;;;;5079288;28;20028;-70